Time;durP1;ratioP1;P1;durP2;ratioP2;P2;SDS_P1;SDS_P2;PMS_P1;PMS_P2;Temp;Humidity;BMP_temperature;BMP_pressure;BME280_temperature;BME280_humidity;BME280_pressure;Samples;Min_cycle;Max_cycle;Signal;HPM_P1;HPM_P2
2021/12/04 00:00:36;;;;;;;;;;;1.40;99.90;;;;;;5051179;28;19913;-77
2021/12/04 00:03:01;;;;;;;;;;;1.40;99.90;;;;;;5050660;28;20309;-78
2021/12/04 00:05:27;;;;;;;;;;;1.40;99.90;;;;;;5051782;28;19909;-78
2021/12/04 00:07:52;;;;;;;;;;;1.40;99.90;;;;;;5051781;28;19908;-77
2021/12/04 00:10:21;;;;;;;;;;;1.50;99.90;;;;;;5052078;28;19920;-78
2021/12/04 00:12:46;;;;;;;;;;;1.50;99.90;;;;;;5045672;28;19909;-78
2021/12/04 00:15:12;;;;;;;;;;;1.50;99.90;;;;;;5051913;28;19940;-78
2021/12/04 00:17:38;;;;;;;;;;;1.50;99.90;;;;;;5054783;28;19913;-78
2021/12/04 00:20:04;;;;;;;;;;;1.50;99.90;;;;;;5054795;28;19908;-78
2021/12/04 00:22:30;;;;;;;;;;;1.50;99.90;;;;;;5054701;28;19908;-78
2021/12/04 00:24:55;;;;;;;;;;;1.50;99.90;;;;;;5053514;28;19915;-78
2021/12/04 00:27:21;;;;;;;;;;;1.60;99.90;;;;;;5053015;28;19917;-77
2021/12/04 00:29:46;;;;;;;;;;;1.50;99.90;;;;;;5051868;28;19979;-77
2021/12/04 00:32:15;;;;;;;;;;;1.60;99.90;;;;;;5052580;28;19912;-78
2021/12/04 00:34:44;;;;;;;;;;;1.60;99.90;;;;;;5054377;28;20418;-78
2021/12/04 00:50:31;;;;;;;;;;;1.60;99.90;;;;;;5054488;28;20385;-77
2021/12/04 00:52:57;;;;;;;;;;;1.60;99.90;;;;;;5054282;28;19909;-77
2021/12/04 00:55:22;;;;;;;;;;;1.60;99.90;;;;;;5054465;28;19920;-78
2021/12/04 00:57:48;;;;;;;;;;;1.60;99.90;;;;;;5054982;28;19960;-77
2021/12/04 01:00:13;;;;;;;;;;;1.60;99.90;;;;;;5054593;28;20279;-77
2021/12/04 01:02:39;;;;;;;;;;;1.70;99.90;;;;;;5052846;28;19909;-78
2021/12/04 01:05:04;;;;;;;;;;;1.70;99.90;;;;;;5054120;28;19909;-78
2021/12/04 01:07:30;;;;;;;;;;;1.60;99.90;;;;;;5054504;28;19913;-78
2021/12/04 01:09:56;;;;;;;;;;;1.60;99.90;;;;;;5053753;28;19916;-77
2021/12/04 01:12:21;;;;;;;;;;;1.70;99.90;;;;;;5053950;28;19996;-78
2021/12/04 01:14:47;;;;;;;;;;;1.70;99.90;;;;;;5053872;28;19912;-78
2021/12/04 01:17:12;;;;;;;;;;;1.60;99.90;;;;;;5053953;28;19913;-78
2021/12/04 01:19:38;;;;;;;;;;;1.50;99.90;;;;;;5053292;28;19936;-78
2021/12/04 01:22:04;;;;;;;;;;;1.40;99.90;;;;;;5053976;28;19916;-78
2021/12/04 01:24:30;;;;;;;;;;;1.30;99.90;;;;;;5052403;28;19908;-77
2021/12/04 01:26:56;;;;;;;;;;;1.20;99.90;;;;;;5053549;28;19916;-78
2021/12/04 01:29:22;;;;;;;;;;;1.10;99.90;;;;;;5054107;28;19996;-78
2021/12/04 01:31:49;;;;;;;;;;;1.00;99.90;;;;;;5051387;28;20378;-78
2021/12/04 01:34:15;;;;;;;;;;;1.00;99.90;;;;;;5050794;28;20331;-78
2021/12/04 01:36:40;;;;;;;;;;;0.90;99.90;;;;;;5052408;28;20361;-77
2021/12/04 01:39:06;;;;;;;;;;;0.90;99.90;;;;;;5051366;28;20016;-78
2021/12/04 01:41:35;;;;;;;;;;;0.90;99.90;;;;;;5052253;28;19912;-78
2021/12/04 01:44:01;;;;;;;;;;;0.90;99.90;;;;;;5051943;28;19909;-79
2021/12/04 01:46:27;;;;;;;;;;;0.80;99.90;;;;;;5051870;28;20388;-78
2021/12/04 01:48:53;;;;;;;;;;;0.80;99.90;;;;;;5051971;28;19937;-80
2021/12/04 01:51:18;;;;;;;;;;;0.80;99.90;;;;;;5052038;28;19916;-80
2021/12/04 01:53:44;;;;;;;;;;;0.80;99.90;;;;;;5050485;28;19916;-80
2021/12/04 01:56:09;;;;;;;;;;;0.80;99.90;;;;;;5052695;28;19908;-80
2021/12/04 01:58:35;;;;;;;;;;;0.70;99.90;;;;;;5053404;28;19932;-80
2021/12/04 02:01:01;;;;;;;;;;;0.70;99.90;;;;;;5052416;28;19913;-79
2021/12/04 02:03:26;;;;;;;;;;;0.70;99.90;;;;;;5055726;28;19909;-80
2021/12/04 02:05:52;;;;;;;;;;;0.70;99.90;;;;;;5056531;28;19913;-81
2021/12/04 02:08:19;;;;;;;;;;;0.70;99.90;;;;;;5054983;28;19909;-81
2021/12/04 02:10:45;;;;;;;;;;;0.80;99.90;;;;;;5056751;28;20019;-81
2021/12/04 02:13:11;;;;;;;;;;;0.80;99.90;;;;;;5056229;28;19915;-81
2021/12/04 02:15:36;;;;;;;;;;;0.90;99.90;;;;;;5054805;28;20007;-81
2021/12/04 02:18:04;;;;;;;;;;;0.90;99.90;;;;;;5056136;28;19996;-81
2021/12/04 02:20:33;;;;;;;;;;;1.00;99.90;;;;;;5048477;28;19954;-81
2021/12/04 02:22:58;;;;;;;;;;;1.00;99.90;;;;;;5054782;28;19913;-81
2021/12/04 02:25:24;;;;;;;;;;;1.10;99.90;;;;;;5055002;28;19990;-80
2021/12/04 02:27:50;;;;;;;;;;;1.10;99.90;;;;;;5049101;28;20067;-80
2021/12/04 02:30:20;;;;;;;;;;;1.10;99.90;;;;;;5049384;28;20401;-81
2021/12/04 02:32:46;;;;;;;;;;;1.10;99.90;;;;;;5069023;28;20263;-79
2021/12/04 02:35:13;;;;;;;;;;;1.10;99.90;;;;;;5053874;28;19916;-81
2021/12/04 02:37:39;;;;;;;;;;;1.10;99.90;;;;;;5055746;28;19912;-81
2021/12/04 02:40:06;;;;;;;;;;;1.10;99.90;;;;;;5055538;28;19909;-80
2021/12/04 02:42:32;;;;;;;;;;;1.10;99.90;;;;;;5054140;28;20278;-81
2021/12/04 02:44:58;;;;;;;;;;;1.10;99.90;;;;;;5055472;28;19971;-81
2021/12/04 02:47:24;;;;;;;;;;;1.00;99.90;;;;;;5056199;28;19908;-81
2021/12/04 02:49:50;;;;;;;;;;;0.90;99.90;;;;;;5055626;28;20209;-81
2021/12/04 02:52:17;;;;;;;;;;;1.00;99.90;;;;;;5055737;28;19916;-81
2021/12/04 02:54:42;;;;;;;;;;;0.90;99.90;;;;;;5055249;28;19928;-80
2021/12/04 02:57:10;;;;;;;;;;;1.20;99.90;;;;;;5055157;28;19913;-81
2021/12/04 02:59:37;;;;;;;;;;;1.30;99.90;;;;;;5055295;28;19932;-81
2021/12/04 03:02:04;;;;;;;;;;;1.40;99.90;;;;;;5052438;28;19909;-81
2021/12/04 03:04:31;;;;;;;;;;;1.50;99.90;;;;;;5054841;28;19927;-81
2021/12/04 03:06:56;;;;;;;;;;;1.60;99.90;;;;;;5055313;28;19981;-81
2021/12/04 03:09:22;;;;;;;;;;;1.60;99.90;;;;;;5054867;28;20317;-81
2021/12/04 03:11:47;;;;;;;;;;;1.60;99.90;;;;;;5054897;28;19909;-81
2021/12/04 03:14:13;;;;;;;;;;;1.70;99.90;;;;;;5053127;28;19913;-80
2021/12/04 03:16:39;;;;;;;;;;;1.70;99.90;;;;;;5055148;28;20282;-80
2021/12/04 03:19:05;;;;;;;;;;;1.70;99.90;;;;;;5055241;28;19909;-81
2021/12/04 03:21:32;;;;;;;;;;;1.80;99.90;;;;;;5054989;28;19916;-81
2021/12/04 03:24:01;;;;;;;;;;;1.80;99.90;;;;;;5053485;28;20064;-81
2021/12/04 03:26:27;;;;;;;;;;;1.70;99.90;;;;;;5052978;28;19913;-80
2021/12/04 03:28:54;;;;;;;;;;;1.70;99.90;;;;;;5054490;28;19912;-79
2021/12/04 03:42:04;;;;;;;;;;;1.90;99.90;;;;;;5054436;28;20472;-80
2021/12/04 03:44:31;;;;;;;;;;;1.90;99.90;;;;;;5053838;28;19955;-80
2021/12/04 03:46:57;;;;;;;;;;;1.80;99.90;;;;;;5054318;28;19909;-80
2021/12/04 03:49:23;;;;;;;;;;;1.90;99.90;;;;;;5054184;28;19909;-81
2021/12/04 03:51:48;;;;;;;;;;;1.90;99.90;;;;;;5052752;28;19967;-81
2021/12/04 03:54:14;;;;;;;;;;;1.90;99.90;;;;;;5052405;28;19913;-79
2021/12/04 03:56:39;;;;;;;;;;;2.00;99.90;;;;;;5052279;28;19954;-80
2021/12/04 03:59:05;;;;;;;;;;;2.00;99.90;;;;;;5052591;28;19963;-81
2021/12/04 04:01:30;;;;;;;;;;;2.00;99.90;;;;;;5051953;28;19916;-80
2021/12/04 04:03:56;;;;;;;;;;;2.10;99.90;;;;;;5051961;28;19924;-78
2021/12/04 04:06:21;;;;;;;;;;;2.10;99.90;;;;;;5053674;28;20369;-81
2021/12/04 04:08:47;;;;;;;;;;;2.10;99.90;;;;;;5052221;28;19909;-80
2021/12/04 04:11:12;;;;;;;;;;;2.10;99.90;;;;;;5053527;28;19913;-80
2021/12/04 04:13:42;;;;;;;;;;;2.10;99.90;;;;;;5051992;28;19912;-80
2021/12/04 04:16:07;;;;;;;;;;;2.10;99.90;;;;;;5053529;28;20289;-81
2021/12/04 04:18:33;;;;;;;;;;;2.10;99.90;;;;;;5052452;28;19909;-80
2021/12/04 04:20:59;;;;;;;;;;;2.10;99.90;;;;;;5052047;28;19976;-80
2021/12/04 04:23:25;;;;;;;;;;;2.20;99.90;;;;;;5053099;28;19909;-80
2021/12/04 04:25:50;;;;;;;;;;;2.30;99.90;;;;;;5053329;28;19915;-78
2021/12/04 04:28:16;;;;;;;;;;;2.20;99.90;;;;;;5053482;28;19970;-80
2021/12/04 04:30:41;;;;;;;;;;;2.30;99.90;;;;;;5048387;28;19967;-80
2021/12/04 04:33:09;;;;;;;;;;;2.30;99.90;;;;;;5052668;28;19932;-80
2021/12/04 04:35:35;;;;;;;;;;;2.40;99.90;;;;;;5048375;28;19916;-80
2021/12/04 05:02:26;;;;;;;;;;;2.60;99.90;;;;;;5050068;28;19913;-79
2021/12/04 05:13:01;;;;;;;;;;;2.80;99.90;;;;;;5053051;28;19913;-79
2021/12/04 05:18:36;;;;;;;;;;;2.80;99.90;;;;;;5052977;28;19908;-79
2021/12/04 05:20:54;;;;;;;;;;;2.90;99.90;;;;;;5052310;28;19913;-79
2021/12/04 05:23:20;;;;;;;;;;;2.90;99.90;;;;;;5053951;28;19916;-79
2021/12/04 05:25:45;;;;;;;;;;;2.90;99.90;;;;;;5054964;28;19909;-80
2021/12/04 05:28:11;;;;;;;;;;;2.90;99.90;;;;;;5054923;28;19917;-79
2021/12/04 05:30:37;;;;;;;;;;;2.90;99.90;;;;;;5054101;28;19909;-79
2021/12/04 05:33:03;;;;;;;;;;;3.10;99.90;;;;;;5049819;28;19909;-79
2021/12/04 05:35:28;;;;;;;;;;;3.10;99.90;;;;;;5057526;28;19946;-79
2021/12/04 05:37:54;;;;;;;;;;;3.00;99.90;;;;;;5057513;28;19908;-78
2021/12/04 05:40:20;;;;;;;;;;;3.10;99.90;;;;;;5058063;28;20019;-79
2021/12/04 05:42:46;;;;;;;;;;;3.10;99.90;;;;;;5057691;28;19909;-79
2021/12/04 05:45:21;;;;;;;;;;;3.20;99.90;;;;;;5059029;28;19909;-79
2021/12/04 05:48:03;;;;;;;;;;;3.20;99.90;;;;;;5057292;28;19948;-79
2021/12/04 05:53:16;;;;;;;;;;;3.20;99.90;;;;;;5058584;28;19908;-79
2021/12/04 05:55:57;;;;;;;;;;;3.20;99.90;;;;;;5057157;28;19913;-79
2021/12/04 05:58:27;;;;;;;;;;;3.20;99.90;;;;;;5057737;28;19909;-78
2021/12/04 06:00:54;;;;;;;;;;;3.30;99.90;;;;;;5057605;28;19908;-78
2021/12/04 06:03:20;;;;;;;;;;;3.30;99.90;;;;;;5056547;28;19955;-79
2021/12/04 06:05:45;;;;;;;;;;;3.40;99.90;;;;;;5056277;28;19909;-79
2021/12/04 06:08:11;;;;;;;;;;;3.40;99.90;;;;;;5055128;28;19915;-79
2021/12/04 06:10:37;;;;;;;;;;;3.40;99.90;;;;;;5055483;28;19912;-80
2021/12/04 06:13:03;;;;;;;;;;;3.40;99.90;;;;;;5055112;28;19931;-79
2021/12/04 06:15:28;;;;;;;;;;;3.40;99.90;;;;;;5055186;28;19917;-79
2021/12/04 06:17:55;;;;;;;;;;;3.40;99.90;;;;;;5049089;28;19909;-79
2021/12/04 06:23:05;;;;;;;;;;;3.40;99.90;;;;;;5055072;28;20277;-79
2021/12/04 06:25:31;;;;;;;;;;;3.50;99.90;;;;;;5055710;28;19909;-79
2021/12/04 06:27:56;;;;;;;;;;;3.50;99.90;;;;;;5053824;28;19924;-79
2021/12/04 06:30:23;;;;;;;;;;;3.60;99.90;;;;;;5054367;28;20374;-79
2021/12/04 06:32:50;;;;;;;;;;;3.60;99.90;;;;;;5051793;28;20293;-79
2021/12/04 06:35:17;;;;;;;;;;;3.60;99.90;;;;;;5053383;28;19920;-79
2021/12/04 06:37:42;;;;;;;;;;;3.70;99.90;;;;;;5054168;28;20027;-79
2021/12/04 06:40:09;;;;;;;;;;;3.70;99.90;;;;;;5053763;28;20628;-78
2021/12/04 06:42:34;;;;;;;;;;;3.80;99.90;;;;;;5055029;28;19909;-79
2021/12/04 06:45:01;;;;;;;;;;;3.80;99.90;;;;;;5055900;28;19915;-79
2021/12/04 06:47:27;;;;;;;;;;;3.80;99.90;;;;;;5056287;28;19915;-79
2021/12/04 06:49:56;;;;;;;;;;;3.80;99.90;;;;;;5055991;28;20351;-78
2021/12/04 06:52:25;;;;;;;;;;;3.80;99.90;;;;;;5054631;28;19913;-78
2021/12/04 06:55:02;;;;;;;;;;;3.80;99.90;;;;;;5056341;28;19920;-79
2021/12/04 06:57:33;;;;;;;;;;;3.80;99.90;;;;;;5054870;28;20442;-79
2021/12/04 06:59:59;;;;;;;;;;;3.90;99.90;;;;;;5054962;28;19912;-78
2021/12/04 07:02:24;;;;;;;;;;;3.90;99.90;;;;;;5056717;28;20381;-78
2021/12/04 07:04:50;;;;;;;;;;;3.90;99.90;;;;;;5056158;28;19909;-78
2021/12/04 07:07:16;;;;;;;;;;;4.00;99.90;;;;;;5057494;28;19916;-79
2021/12/04 07:09:42;;;;;;;;;;;4.00;99.90;;;;;;5056662;28;19908;-79
2021/12/04 07:12:08;;;;;;;;;;;4.00;99.90;;;;;;5044607;28;20025;-79
2021/12/04 07:14:34;;;;;;;;;;;4.00;99.90;;;;;;5040108;28;19963;-78
2021/12/04 07:17:02;;;;;;;;;;;4.00;99.90;;;;;;5041849;28;19913;-78
2021/12/04 07:19:28;;;;;;;;;;;4.00;99.90;;;;;;5057939;28;19931;-78
2021/12/04 07:21:54;;;;;;;;;;;4.00;99.90;;;;;;5057709;28;19912;-78
2021/12/04 07:24:20;;;;;;;;;;;4.10;99.90;;;;;;5056330;28;19967;-78
2021/12/04 07:26:45;;;;;;;;;;;4.10;99.90;;;;;;5057330;28;19966;-78
2021/12/04 07:29:11;;;;;;;;;;;4.20;99.90;;;;;;5056007;28;19944;-78
2021/12/04 07:31:39;;;;;;;;;;;4.20;99.90;;;;;;5054480;28;19916;-78
2021/12/04 07:34:05;;;;;;;;;;;4.20;99.90;;;;;;5049836;28;20003;-78
2021/12/04 07:36:30;;;;;;;;;;;4.20;99.90;;;;;;5050273;28;19912;-78
2021/12/04 07:38:58;;;;;;;;;;;4.20;99.90;;;;;;5056028;28;20380;-78
2021/12/04 07:41:23;;;;;;;;;;;4.20;99.90;;;;;;5055714;28;19948;-78
2021/12/04 07:43:49;;;;;;;;;;;4.20;99.90;;;;;;5054426;28;19909;-77
2021/12/04 07:46:14;;;;;;;;;;;4.20;99.90;;;;;;5054693;28;19992;-78
2021/12/04 07:48:40;;;;;;;;;;;4.10;99.90;;;;;;5057160;28;19932;-79
2021/12/04 07:51:06;;;;;;;;;;;4.20;99.90;;;;;;5055703;28;19909;-78
2021/12/04 07:53:31;;;;;;;;;;;4.20;99.90;;;;;;5053633;28;19916;-78
2021/12/04 07:55:58;;;;;;;;;;;4.30;99.90;;;;;;5055659;28;19917;-79
2021/12/04 07:58:23;;;;;;;;;;;4.30;99.90;;;;;;5057811;28;19916;-79
2021/12/04 08:00:49;;;;;;;;;;;4.30;99.90;;;;;;5052015;28;19917;-79
2021/12/04 08:03:14;;;;;;;;;;;4.30;99.90;;;;;;5051766;28;20388;-79
2021/12/04 08:05:40;;;;;;;;;;;4.40;99.90;;;;;;5053068;28;19909;-79
2021/12/04 08:08:06;;;;;;;;;;;4.40;99.90;;;;;;5053197;28;19915;-78
2021/12/04 08:10:33;;;;;;;;;;;4.30;99.90;;;;;;5054732;28;19909;-79
2021/12/04 08:12:59;;;;;;;;;;;4.30;99.90;;;;;;5054786;28;19912;-79
2021/12/04 08:15:25;;;;;;;;;;;4.30;99.90;;;;;;5053793;28;19958;-79
2021/12/04 08:17:50;;;;;;;;;;;4.30;99.90;;;;;;5054097;28;19909;-79
2021/12/04 08:20:16;;;;;;;;;;;4.30;99.90;;;;;;5054287;28;20340;-77
2021/12/04 08:22:42;;;;;;;;;;;4.30;99.90;;;;;;5053564;28;19909;-79
2021/12/04 08:25:09;;;;;;;;;;;4.40;99.90;;;;;;5053554;28;20179;-79
2021/12/04 08:27:35;;;;;;;;;;;4.40;99.90;;;;;;5053536;28;19986;-78
2021/12/04 08:30:00;;;;;;;;;;;4.50;99.90;;;;;;5053745;28;20369;-77
2021/12/04 08:32:26;;;;;;;;;;;4.50;99.90;;;;;;5053307;28;19908;-80
2021/12/04 08:34:51;;;;;;;;;;;4.40;99.90;;;;;;5053066;28;19913;-79
2021/12/04 08:37:17;;;;;;;;;;;4.40;99.90;;;;;;5051663;28;20384;-79
2021/12/04 08:39:43;;;;;;;;;;;4.40;99.90;;;;;;5053526;28;19916;-79
2021/12/04 08:42:08;;;;;;;;;;;4.50;99.90;;;;;;5051964;28;19928;-78
2021/12/04 08:44:34;;;;;;;;;;;4.60;99.90;;;;;;5053984;28;20385;-79
2021/12/04 08:47:00;;;;;;;;;;;4.70;99.90;;;;;;5055100;28;19932;-79
2021/12/04 08:49:26;;;;;;;;;;;4.70;99.90;;;;;;5054534;28;19908;-79
2021/12/04 08:51:52;;;;;;;;;;;4.70;99.90;;;;;;5054364;28;20349;-79
2021/12/04 08:54:17;;;;;;;;;;;4.80;99.90;;;;;;5047220;28;19913;-79
2021/12/04 08:56:43;;;;;;;;;;;4.80;99.90;;;;;;5052510;28;19920;-79
2021/12/04 08:59:09;;;;;;;;;;;4.90;99.90;;;;;;5054798;28;19920;-79
2021/12/04 09:01:37;;;;;;;;;;;4.90;99.90;;;;;;5055233;28;20008;-79
2021/12/04 09:04:17;;;;;;;;;;;5.00;99.90;;;;;;5052296;28;19917;-79
2021/12/04 09:06:42;;;;;;;;;;;5.00;99.90;;;;;;5053023;28;19999;-79
2021/12/04 09:09:09;;;;;;;;;;;5.10;99.90;;;;;;5056580;28;19964;-79
2021/12/04 09:11:37;;;;;;;;;;;5.10;99.90;;;;;;5058809;28;20063;-79
2021/12/04 09:14:03;;;;;;;;;;;5.10;99.90;;;;;;5056481;28;19931;-79
2021/12/04 09:16:29;;;;;;;;;;;5.10;99.90;;;;;;5058507;28;19912;-79
2021/12/04 09:18:56;;;;;;;;;;;5.20;99.90;;;;;;5057954;28;19909;-78
2021/12/04 09:21:22;;;;;;;;;;;5.20;99.90;;;;;;5058830;28;20197;-79
2021/12/04 09:24:13;;;;;;;;;;;5.20;99.90;;;;;;5056519;28;20423;-79
2021/12/04 09:36:57;;;;;;;;;;;5.90;99.90;;;;;;5051075;28;19913;-78
2021/12/04 10:20:18;;;;;;;;;;;7.40;99.90;;;;;;5056604;28;19939;-79
2021/12/04 10:33:47;;;;;;;;;;;6.90;99.90;;;;;;5055690;28;20437;-81
2021/12/04 10:36:13;;;;;;;;;;;7.10;99.90;;;;;;5057311;28;20370;-80
2021/12/04 10:38:43;;;;;;;;;;;7.20;99.90;;;;;;5058342;28;19916;-80
2021/12/04 10:41:09;;;;;;;;;;;7.30;99.90;;;;;;5056924;28;19909;-80
2021/12/04 10:43:36;;;;;;;;;;;7.40;99.90;;;;;;5055473;28;19963;-81
2021/12/04 10:46:07;;;;;;;;;;;7.50;99.90;;;;;;5056337;28;20384;-81
2021/12/04 10:48:33;;;;;;;;;;;7.70;99.90;;;;;;5056225;28;19908;-81
2021/12/04 10:53:32;;;;;;;;;;;8.10;99.90;;;;;;5055558;28;19912;-80
2021/12/04 11:35:01;;;;;;;;;;;7.90;99.90;;;;;;5053506;28;20386;-79
2021/12/04 11:44:24;;;;;;;;;;;7.90;99.90;;;;;;5048303;28;19909;-78
2021/12/04 11:46:54;;;;;;;;;;;8.10;99.90;;;;;;5053593;28;19913;-79
2021/12/04 11:49:27;;;;;;;;;;;8.20;99.90;;;;;;5052648;28;19920;-79
2021/12/04 11:51:57;;;;;;;;;;;8.10;99.90;;;;;;5051987;28;19955;-79
2021/12/04 11:54:33;;;;;;;;;;;8.20;99.90;;;;;;5053185;28;19913;-78
2021/12/04 11:57:10;;;;;;;;;;;8.20;99.90;;;;;;5054955;28;19952;-77
2021/12/04 11:59:37;;;;;;;;;;;8.20;99.90;;;;;;5052812;28;19916;-79
2021/12/04 12:02:03;;;;;;;;;;;8.10;99.90;;;;;;5053946;28;19909;-79
2021/12/04 12:04:45;;;;;;;;;;;8.00;99.90;;;;;;5046840;28;19973;-80
2021/12/04 12:07:12;;;;;;;;;;;7.90;99.90;;;;;;5054177;28;19948;-79
2021/12/04 12:09:39;;;;;;;;;;;7.80;99.90;;;;;;5054026;28;19955;-79
2021/12/04 12:12:06;;;;;;;;;;;7.80;99.90;;;;;;5053558;28;19909;-79
2021/12/04 12:14:43;;;;;;;;;;;7.80;99.90;;;;;;5053438;28;19958;-80
2021/12/04 12:17:09;;;;;;;;;;;7.90;99.90;;;;;;5053911;28;19912;-79
2021/12/04 12:19:40;;;;;;;;;;;8.00;99.90;;;;;;5054242;28;19909;-79
2021/12/04 12:22:12;;;;;;;;;;;7.90;99.90;;;;;;5053398;28;19909;-77
2021/12/04 12:27:33;;;;;;;;;;;7.80;99.90;;;;;;5054023;28;19917;-79
2021/12/04 12:33:17;;;;;;;;;;;7.70;99.90;;;;;;5053712;28;20003;-79
2021/12/04 12:36:03;;;;;;;;;;;7.80;99.90;;;;;;5050185;28;20449;-79
2021/12/04 12:38:35;;;;;;;;;;;7.80;99.90;;;;;;5053655;28;19970;-79
2021/12/04 12:41:08;;;;;;;;;;;7.70;99.90;;;;;;5053652;28;19943;-80
2021/12/04 12:43:37;;;;;;;;;;;7.70;99.90;;;;;;5052732;28;19909;-80
2021/12/04 12:46:02;;;;;;;;;;;7.70;99.90;;;;;;5053204;28;19916;-79
2021/12/04 12:48:28;;;;;;;;;;;7.70;99.90;;;;;;5045975;28;19909;-79
2021/12/04 12:51:04;;;;;;;;;;;7.70;99.90;;;;;;5050750;28;19908;-80
2021/12/04 12:53:30;;;;;;;;;;;7.60;99.90;;;;;;5052263;28;20361;-79
2021/12/04 12:56:06;;;;;;;;;;;7.60;99.90;;;;;;5054136;28;19966;-79
2021/12/04 12:59:12;;;;;;;;;;;7.60;99.90;;;;;;5055018;28;20315;-80
2021/12/04 13:13:21;;;;;;;;;;;7.50;99.90;;;;;;5053488;28;20277;-80
2021/12/04 13:15:46;;;;;;;;;;;7.50;99.90;;;;;;5054836;28;19919;-80
2021/12/04 13:18:21;;;;;;;;;;;7.50;99.90;;;;;;5055675;28;19912;-80
2021/12/04 13:20:47;;;;;;;;;;;7.50;99.90;;;;;;5054474;28;19966;-80
2021/12/04 13:23:14;;;;;;;;;;;7.50;99.90;;;;;;5054887;28;19939;-80
2021/12/04 13:25:48;;;;;;;;;;;7.60;99.90;;;;;;5055545;28;19913;-78
2021/12/04 13:30:44;;;;;;;;;;;7.50;99.90;;;;;;5054153;28;20358;-80
2021/12/04 13:33:10;;;;;;;;;;;7.40;99.90;;;;;;5052275;28;19937;-80
2021/12/04 13:35:36;;;;;;;;;;;7.40;99.90;;;;;;5055834;28;19935;-80
2021/12/04 13:38:03;;;;;;;;;;;7.40;99.90;;;;;;5055730;28;20389;-80
2021/12/04 13:40:29;;;;;;;;;;;7.30;99.90;;;;;;5054135;28;19913;-81
2021/12/04 13:42:55;;;;;;;;;;;7.30;99.90;;;;;;5055391;28;19959;-80
2021/12/04 13:45:21;;;;;;;;;;;7.30;99.90;;;;;;5056221;28;19921;-79
2021/12/04 13:47:54;;;;;;;;;;;7.30;99.90;;;;;;5055755;28;19912;-80
2021/12/04 13:51:06;;;;;;;;;;;7.30;99.90;;;;;;5055525;28;19909;-81
2021/12/04 13:53:12;;;;;;;;;;;7.20;99.90;;;;;;5051994;28;19909;-81
2021/12/04 13:55:39;;;;;;;;;;;7.20;99.90;;;;;;5058949;28;19913;-81
2021/12/04 13:58:05;;;;;;;;;;;7.10;99.90;;;;;;5053062;28;19909;-79
2021/12/04 14:00:30;;;;;;;;;;;7.10;99.90;;;;;;5059920;28;19915;-80
2021/12/04 14:02:56;;;;;;;;;;;7.10;99.90;;;;;;5059871;28;19941;-81
2021/12/04 14:05:23;;;;;;;;;;;7.10;99.90;;;;;;5058543;28;19932;-81
2021/12/04 14:07:54;;;;;;;;;;;7.00;99.90;;;;;;5058126;28;19913;-81
2021/12/04 14:10:21;;;;;;;;;;;7.00;99.90;;;;;;5059604;28;19916;-81
2021/12/04 14:12:47;;;;;;;;;;;7.00;99.90;;;;;;5074875;28;19915;-77
2021/12/04 14:15:14;;;;;;;;;;;7.00;99.90;;;;;;5060054;28;20003;-80
2021/12/04 14:17:39;;;;;;;;;;;7.10;99.90;;;;;;5058781;28;19919;-81
2021/12/04 14:20:06;;;;;;;;;;;7.10;99.90;;;;;;5059028;28;19909;-80
2021/12/04 14:22:31;;;;;;;;;;;7.20;99.90;;;;;;5057148;28;20355;-80
2021/12/04 14:25:01;;;;;;;;;;;7.10;99.90;;;;;;5058100;28;19944;-80
2021/12/04 14:27:31;;;;;;;;;;;7.10;99.90;;;;;;5056436;28;19971;-81
2021/12/04 14:30:01;;;;;;;;;;;7.10;99.90;;;;;;5058611;28;19912;-81
2021/12/04 14:32:29;;;;;;;;;;;7.10;99.90;;;;;;5056289;28;20040;-81
2021/12/04 14:34:59;;;;;;;;;;;7.00;99.90;;;;;;5058211;28;19919;-81
2021/12/04 14:37:25;;;;;;;;;;;7.00;99.90;;;;;;5052170;28;19916;-81
2021/12/04 14:39:50;;;;;;;;;;;7.00;99.90;;;;;;5057986;28;19913;-81
2021/12/04 14:42:19;;;;;;;;;;;7.00;99.90;;;;;;5052444;28;20376;-81
2021/12/04 14:44:50;;;;;;;;;;;7.00;99.90;;;;;;5058226;28;20328;-81
2021/12/04 14:47:16;;;;;;;;;;;7.00;99.90;;;;;;5052230;28;20385;-80
2021/12/04 14:49:45;;;;;;;;;;;6.90;99.90;;;;;;5057427;28;19919;-81
2021/12/04 14:52:18;;;;;;;;;;;6.80;99.90;;;;;;5058047;28;20452;-80
2021/12/04 14:54:43;;;;;;;;;;;6.80;99.90;;;;;;5057490;28;19924;-80
2021/12/04 14:57:16;;;;;;;;;;;6.80;99.90;;;;;;5056702;28;20170;-81
2021/12/04 14:59:42;;;;;;;;;;;6.80;99.90;;;;;;5056286;28;19909;-80
2021/12/04 15:02:27;;;;;;;;;;;6.70;99.90;;;;;;5051461;28;19976;-79
2021/12/04 15:04:52;;;;;;;;;;;6.80;99.90;;;;;;5056959;28;20027;-81
2021/12/04 15:07:22;;;;;;;;;;;6.80;99.90;;;;;;5055971;28;19908;-80
2021/12/04 15:09:48;;;;;;;;;;;6.80;99.90;;;;;;5057278;28;19969;-79
2021/12/04 15:12:24;;;;;;;;;;;6.90;99.90;;;;;;5057562;28;19909;-80
2021/12/04 15:14:54;;;;;;;;;;;6.90;99.90;;;;;;5055841;28;20378;-81
2021/12/04 15:17:19;;;;;;;;;;;6.90;99.90;;;;;;5057223;28;19959;-81
2021/12/04 15:19:46;;;;;;;;;;;6.80;99.90;;;;;;5057081;28;19909;-80
2021/12/04 15:22:22;;;;;;;;;;;6.80;99.90;;;;;;5057145;28;19913;-80
2021/12/04 15:24:48;;;;;;;;;;;6.70;99.90;;;;;;5054562;28;19944;-80
2021/12/04 15:27:16;;;;;;;;;;;6.70;99.90;;;;;;5057116;28;19953;-80
2021/12/04 15:29:45;;;;;;;;;;;6.70;99.90;;;;;;5056947;28;19913;-80
2021/12/04 15:32:13;;;;;;;;;;;6.70;99.90;;;;;;5051775;28;19920;-79
2021/12/04 15:34:44;;;;;;;;;;;6.70;99.90;;;;;;5056411;28;20102;-79
2021/12/04 15:37:10;;;;;;;;;;;6.70;99.90;;;;;;5050522;28;19909;-80
2021/12/04 15:39:41;;;;;;;;;;;6.70;99.90;;;;;;5057445;28;19916;-80
2021/12/04 15:47:37;;;;;;;;;;;6.80;99.90;;;;;;5057371;28;19913;-80
2021/12/04 15:52:52;;;;;;;;;;;6.80;99.90;;;;;;5056093;28;20284;-80
2021/12/04 15:55:22;;;;;;;;;;;6.80;99.90;;;;;;5050502;28;19913;-80
2021/12/04 15:58:03;;;;;;;;;;;6.80;99.90;;;;;;5056635;28;20349;-80
2021/12/04 16:00:31;;;;;;;;;;;6.70;99.90;;;;;;5055658;28;19924;-80
2021/12/04 16:02:58;;;;;;;;;;;6.70;99.90;;;;;;5051722;28;19954;-79
2021/12/04 16:05:25;;;;;;;;;;;6.80;99.90;;;;;;5056492;28;19955;-79
2021/12/04 16:08:01;;;;;;;;;;;6.80;99.90;;;;;;5054130;28;19955;-81
2021/12/04 16:10:27;;;;;;;;;;;6.80;99.90;;;;;;5055260;28;19915;-80
2021/12/04 16:12:54;;;;;;;;;;;6.70;99.90;;;;;;5054650;28;19909;-81
2021/12/04 16:15:21;;;;;;;;;;;6.80;99.90;;;;;;5055072;28;19981;-79
2021/12/04 16:17:46;;;;;;;;;;;6.70;99.90;;;;;;5053878;28;20400;-80
2021/12/04 16:20:13;;;;;;;;;;;6.80;99.90;;;;;;5053479;28;19905;-78
2021/12/04 16:22:40;;;;;;;;;;;6.70;99.90;;;;;;5054867;28;19913;-80
2021/12/04 16:25:14;;;;;;;;;;;6.70;99.90;;;;;;5053151;28;19909;-80
2021/12/04 16:36:05;;;;;;;;;;;6.60;99.90;;;;;;5049843;28;19952;-79
2021/12/04 16:38:09;;;;;;;;;;;6.60;99.90;;;;;;5051432;28;19909;-80
2021/12/04 16:40:35;;;;;;;;;;;6.50;99.90;;;;;;5054768;28;19908;-79
2021/12/04 16:43:12;;;;;;;;;;;6.40;99.90;;;;;;5054291;28;19909;-79
2021/12/04 16:45:40;;;;;;;;;;;6.30;99.90;;;;;;5054824;28;19955;-79
2021/12/04 16:48:08;;;;;;;;;;;6.20;99.90;;;;;;5053183;28;19958;-80
2021/12/04 16:58:47;;;;;;;;;;;5.90;99.90;;;;;;5055718;28;20354;-80
2021/12/04 17:01:14;;;;;;;;;;;6.00;99.90;;;;;;5054184;28;19965;-78
2021/12/04 17:03:40;;;;;;;;;;;6.10;99.90;;;;;;5053447;28;19987;-79
2021/12/04 17:06:05;;;;;;;;;;;6.30;99.90;;;;;;5052802;28;19909;-79
2021/12/04 17:08:31;;;;;;;;;;;6.30;99.90;;;;;;5054454;28;19909;-80
2021/12/04 17:10:57;;;;;;;;;;;6.30;99.90;;;;;;5053934;28;20235;-80
2021/12/04 17:13:22;;;;;;;;;;;6.20;99.90;;;;;;5055703;28;19924;-80
2021/12/04 17:15:48;;;;;;;;;;;6.20;99.90;;;;;;5055159;28;19912;-80
2021/12/04 17:18:21;;;;;;;;;;;6.20;99.90;;;;;;5053771;28;19952;-80
2021/12/04 17:20:47;;;;;;;;;;;6.10;99.90;;;;;;5054749;28;19909;-79
2021/12/04 17:23:14;;;;;;;;;;;6.10;99.90;;;;;;5054719;28;20221;-79
2021/12/04 17:25:41;;;;;;;;;;;6.00;99.90;;;;;;5055728;28;20328;-79
2021/12/04 17:28:09;;;;;;;;;;;6.00;99.90;;;;;;5053764;28;19916;-78
2021/12/04 17:30:36;;;;;;;;;;;6.00;99.90;;;;;;5057274;28;20346;-78
2021/12/04 17:33:02;;;;;;;;;;;6.00;99.90;;;;;;5058383;28;19955;-79
2021/12/04 17:35:28;;;;;;;;;;;5.90;99.90;;;;;;5055947;28;20277;-78
2021/12/04 17:37:54;;;;;;;;;;;5.70;99.90;;;;;;5059563;28;19935;-79
2021/12/04 17:40:20;;;;;;;;;;;5.80;99.90;;;;;;5060371;28;19936;-79
2021/12/04 17:42:46;;;;;;;;;;;5.70;99.90;;;;;;5059431;28;19920;-79
2021/12/04 17:45:13;;;;;;;;;;;5.90;99.90;;;;;;5058252;28;20411;-79
2021/12/04 17:47:42;;;;;;;;;;;5.90;99.90;;;;;;5059427;28;20443;-78
2021/12/04 17:50:12;;;;;;;;;;;6.10;99.90;;;;;;5057910;28;20397;-78
2021/12/04 17:52:38;;;;;;;;;;;6.20;99.90;;;;;;5059258;28;19915;-78
2021/12/04 17:55:04;;;;;;;;;;;6.10;99.90;;;;;;5059000;28;20378;-79
2021/12/04 17:57:30;;;;;;;;;;;6.20;99.90;;;;;;5057105;28;19924;-79
2021/12/04 17:59:56;;;;;;;;;;;6.10;99.90;;;;;;5073776;28;19909;-78
2021/12/04 18:02:22;;;;;;;;;;;6.10;99.90;;;;;;5058801;28;19909;-80
2021/12/04 18:04:49;;;;;;;;;;;6.00;99.90;;;;;;5057931;28;20269;-79
2021/12/04 18:07:16;;;;;;;;;;;6.00;99.90;;;;;;5059012;28;19992;-77
2021/12/04 18:09:42;;;;;;;;;;;6.00;99.90;;;;;;5057268;28;19909;-79
2021/12/04 18:12:09;;;;;;;;;;;5.90;99.90;;;;;;5056937;28;19958;-79